createdAt,value
2019-02-07T00:00:59.219Z,27.17
2019-02-07T00:03:26.636Z,23.70
2019-02-07T00:05:54.065Z,22.77
2019-02-07T00:08:21.651Z,20.10
2019-02-07T00:10:49.070Z,22.22
2019-02-07T00:13:16.495Z,20.75
2019-02-07T00:15:43.924Z,23.92
2019-02-07T00:18:11.341Z,23.25
2019-02-07T00:20:38.815Z,21.02
2019-02-07T00:23:06.316Z,24.67
2019-02-07T00:25:33.912Z,21.30
2019-02-07T00:28:01.324Z,24.02
2019-02-07T00:30:28.762Z,20.77
2019-02-07T00:32:56.168Z,23.45
2019-02-07T00:35:23.646Z,20.50
2019-02-07T00:37:51.087Z,21.55
2019-02-07T00:40:21.287Z,22.13
2019-02-07T00:42:49.049Z,19.37
2019-02-07T00:45:17.155Z,19.40
2019-02-07T00:47:44.631Z,23.57
2019-02-07T00:50:13.120Z,22.62
2019-02-07T00:52:40.609Z,23.32
2019-02-07T00:55:09.568Z,21.93
2019-02-07T00:57:36.986Z,22.10
2019-02-07T01:00:05.928Z,18.80
2019-02-07T01:02:33.354Z,25.50
2019-02-07T01:05:00.754Z,20.10
2019-02-07T01:07:28.185Z,21.70
2019-02-07T01:09:55.593Z,19.95
2019-02-07T01:12:22.999Z,26.27
2019-02-07T01:15:01.427Z,20.85
2019-02-07T01:17:19.833Z,24.72
2019-02-07T01:19:47.265Z,21.75
2019-02-07T01:22:14.676Z,20.30
2019-02-07T01:24:42.190Z,20.80
2019-02-07T01:27:09.585Z,22.20
2019-02-07T01:29:37.075Z,21.50
2019-02-07T01:32:04.751Z,24.98
2019-02-07T01:34:32.445Z,23.75
2019-02-07T01:36:59.842Z,22.32
2019-02-07T01:39:27.283Z,22.87
2019-02-07T01:41:54.684Z,23.15
2019-02-07T01:44:22.099Z,23.30
2019-02-07T01:46:49.528Z,22.07
2019-02-07T01:49:16.996Z,24.60
2019-02-07T01:51:44.440Z,19.52
2019-02-07T01:54:11.855Z,25.40
2019-02-07T01:56:39.256Z,25.15
2019-02-07T01:59:06.675Z,20.52
2019-02-07T02:01:34.181Z,23.07
2019-02-07T02:04:01.583Z,20.85
2019-02-07T02:06:29.003Z,22.35
2019-02-07T02:08:56.685Z,21.80
2019-02-07T02:11:24.124Z,27.62
2019-02-07T02:13:51.573Z,25.72
2019-02-07T02:16:19.031Z,25.90
2019-02-07T02:18:46.423Z,19.50
2019-02-07T02:21:13.897Z,23.75
2019-02-07T02:23:41.387Z,22.30
2019-02-07T02:26:09.053Z,23.92
2019-02-07T02:28:36.503Z,21.57
2019-02-07T02:31:03.997Z,26.68
2019-02-07T02:33:31.491Z,20.62
2019-02-07T02:35:58.903Z,24.77
2019-02-07T02:38:26.339Z,23.55
2019-02-07T02:40:53.727Z,21.35
2019-02-07T02:43:22.249Z,25.50
2019-02-07T02:45:49.674Z,25.08
2019-02-07T02:48:17.141Z,25.62
2019-02-07T02:50:44.630Z,22.20
2019-02-07T02:53:12.102Z,26.37
2019-02-07T02:55:41.170Z,22.73
2019-02-07T02:58:08.634Z,27.30
2019-02-07T03:00:47.173Z,19.52
2019-02-07T03:03:34.030Z,22.70
2019-02-07T03:06:03.096Z,25.35
2019-02-07T03:08:41.192Z,24.45
2019-02-07T03:11:26.579Z,21.17
2019-02-07T03:14:13.504Z,23.40
2019-02-07T03:16:58.946Z,26.52
2019-02-07T03:19:36.823Z,29.30
2019-02-07T03:22:22.175Z,25.27
2019-02-07T03:25:03.259Z,24.40
2019-02-07T03:27:50.437Z,22.37
2019-02-07T03:30:35.771Z,27.00
2019-02-07T03:33:10.513Z,26.17
2019-02-07T03:35:45.177Z,21.52
2019-02-07T03:38:16.936Z,26.82
2019-02-07T03:40:49.131Z,25.48
2019-02-07T03:43:33.022Z,27.40
2019-02-07T03:46:16.932Z,24.75
2019-02-07T03:48:54.941Z,26.00
2019-02-07T03:51:39.848Z,24.12
2019-02-07T03:54:23.550Z,25.30
2019-02-07T03:57:09.107Z,26.25
2019-02-07T03:59:40.691Z,26.80
2019-02-07T04:02:09.838Z,30.27
2019-02-07T04:04:47.548Z,27.13
2019-02-07T04:07:25.409Z,26.25
2019-02-07T04:10:10.449Z,27.90
2019-02-07T04:12:39.520Z,23.65
2019-02-07T04:15:11.172Z,28.38
2019-02-07T04:17:40.208Z,25.72
2019-02-07T04:20:26.588Z,25.77
2019-02-07T04:22:58.565Z,24.82
2019-02-07T04:25:44.969Z,20.08
2019-02-07T04:28:14.006Z,23.83
2019-02-07T04:30:43.050Z,22.58
2019-02-07T04:33:18.112Z,25.97
2019-02-07T04:35:47.176Z,25.85
2019-02-07T04:38:18.889Z,25.50
2019-02-07T04:40:50.742Z,23.52
2019-02-07T04:43:22.764Z,21.95
2019-02-07T04:45:57.595Z,21.25
2019-02-07T04:48:38.983Z,26.60
2019-02-07T04:51:11.166Z,28.75
2019-02-07T04:53:40.186Z,22.90
2019-02-07T04:56:11.888Z,22.50
2019-02-07T04:58:40.953Z,24.25
2019-02-07T05:01:22.113Z,22.40
2019-02-07T05:04:07.681Z,24.45
2019-02-07T05:06:53.077Z,27.25
2019-02-07T05:09:30.529Z,23.27
2019-02-07T05:12:01.245Z,22.73
2019-02-07T05:14:35.831Z,23.62
2019-02-07T05:17:16.732Z,24.45
2019-02-07T05:19:45.793Z,22.73
2019-02-07T05:22:29.947Z,21.85
2019-02-07T05:24:59.006Z,24.30
2019-02-07T05:27:39.952Z,21.45
2019-02-07T05:30:29.198Z,26.05
2019-02-07T05:33:04.044Z,26.17
2019-02-07T05:35:42.011Z,28.10
2019-02-07T05:38:13.759Z,23.30
2019-02-07T05:40:42.796Z,24.45
2019-02-07T05:43:11.869Z,25.90
2019-02-07T05:45:43.876Z,23.05
2019-02-07T05:48:13.184Z,24.18
2019-02-07T05:50:50.812Z,26.37
2019-02-07T05:53:22.975Z,27.00
2019-02-07T05:56:08.088Z,24.27
2019-02-07T05:58:53.184Z,27.95
2019-02-07T06:01:22.254Z,22.25
2019-02-07T06:03:53.700Z,27.70
2019-02-07T06:06:22.763Z,28.35
2019-02-07T06:09:03.856Z,26.15
2019-02-07T06:11:48.988Z,28.10
2019-02-07T06:14:35.899Z,23.35
2019-02-07T06:17:16.724Z,25.90
2019-02-07T06:19:48.728Z,28.80
2019-02-07T06:22:23.508Z,30.27
2019-02-07T06:25:01.348Z,24.32
2019-02-07T06:27:32.909Z,29.35
2019-02-07T06:30:07.821Z,32.98
2019-02-07T06:32:46.034Z,31.55
2019-02-07T06:35:15.125Z,28.32
2019-02-07T06:37:46.841Z,26.82
2019-02-07T06:40:15.988Z,26.80
2019-02-07T06:42:45.027Z,28.05
2019-02-07T06:45:30.693Z,37.70
2019-02-07T06:48:02.897Z,30.72
2019-02-07T06:50:48.286Z,25.60
2019-02-07T06:53:29.091Z,26.27
2019-02-07T06:56:04.400Z,27.05
2019-02-07T06:58:39.432Z,28.80
2019-02-07T07:01:17.456Z,24.55
2019-02-07T07:03:57.589Z,23.75
2019-02-07T07:06:34.662Z,25.35
2019-02-07T07:09:06.616Z,29.52
2019-02-07T07:11:38.196Z,21.60
2019-02-07T07:14:07.240Z,25.50
2019-02-07T07:16:36.508Z,26.95
2019-02-07T07:19:08.406Z,21.60
2019-02-07T07:21:37.488Z,20.68
2019-02-07T07:24:22.402Z,25.65
2019-02-07T07:26:54.484Z,25.15
2019-02-07T07:29:29.233Z,26.62
2019-02-07T07:31:58.295Z,23.55
2019-02-07T07:34:29.891Z,26.25
2019-02-07T07:37:01.851Z,23.45
2019-02-07T07:39:47.193Z,26.02
2019-02-07T07:42:18.798Z,25.02
2019-02-07T07:44:53.710Z,22.95
2019-02-07T07:47:22.836Z,25.82
2019-02-07T07:50:09.618Z,21.57
2019-02-07T07:52:38.675Z,23.90
2019-02-07T07:55:10.639Z,24.45
2019-02-07T07:57:42.255Z,25.68
2019-02-07T08:00:13.063Z,25.08
2019-02-07T08:02:42.154Z,22.52
2019-02-07T08:05:20.071Z,25.65
2019-02-07T08:07:49.159Z,26.48
2019-02-07T08:10:34.338Z,26.60
2019-02-07T08:13:15.405Z,22.52
2019-02-07T08:15:56.193Z,24.43
2019-02-07T08:18:25.265Z,23.98
2019-02-07T08:20:56.852Z,22.73
2019-02-07T08:23:25.920Z,22.00
2019-02-07T08:25:57.632Z,26.87
2019-02-07T08:28:29.419Z,25.00
2019-02-07T08:31:01.440Z,23.20
2019-02-07T08:33:39.398Z,27.95
2019-02-07T08:36:14.324Z,25.40
2019-02-07T08:38:49.939Z,26.33
2019-02-07T08:41:37.086Z,27.07
2019-02-07T08:44:20.875Z,26.87
2019-02-07T08:46:58.562Z,25.37
2019-02-07T08:49:33.608Z,28.55
2019-02-07T08:52:18.786Z,28.50
2019-02-07T08:54:53.674Z,28.70
2019-02-07T08:57:22.738Z,30.80
2019-02-07T09:00:03.433Z,29.98
2019-02-07T12:01:55.382Z,24.80
2019-02-07T12:04:30.369Z,25.60
2019-02-07T12:07:04.912Z,24.57
2019-02-07T12:09:41.022Z,26.80
2019-02-07T12:12:12.893Z,23.27
2019-02-07T12:14:41.929Z,23.12
2019-02-07T12:17:11.024Z,24.63
2019-02-07T12:19:47.787Z,24.15
2019-02-07T12:22:33.027Z,23.70
2019-02-07T12:25:10.938Z,23.42
2019-02-07T12:27:42.548Z,23.45
2019-02-07T12:30:24.971Z,20.50
2019-02-07T12:32:54.032Z,23.18
2019-02-07T12:35:35.005Z,21.07
2019-02-07T12:38:09.903Z,22.20
2019-02-07T12:40:44.762Z,23.25
2019-02-07T12:43:25.518Z,24.75
2019-02-07T12:46:00.622Z,23.80
2019-02-07T12:48:38.422Z,20.48
2019-02-07T12:51:24.399Z,21.82
2019-02-07T12:54:05.667Z,23.40
2019-02-07T12:56:34.722Z,22.50
2019-02-07T12:59:12.356Z,20.43
2019-02-07T13:01:44.048Z,22.20
2019-02-07T13:04:23.761Z,21.45
2019-02-07T13:06:58.459Z,19.85
2019-02-07T13:09:45.474Z,21.68
2019-02-07T13:12:20.089Z,21.45
2019-02-07T13:14:52.292Z,22.42
2019-02-07T13:17:21.392Z,22.70
2019-02-07T13:19:55.952Z,19.77
2019-02-07T13:22:28.038Z,18.87
2019-02-07T13:25:02.504Z,22.30
2019-02-07T13:27:31.566Z,18.40
2019-02-07T13:30:19.229Z,20.37
2019-02-07T13:32:50.263Z,17.90
2019-02-07T13:35:25.072Z,19.25
2019-02-07T13:38:09.191Z,19.67
2019-02-07T13:40:41.079Z,17.82
2019-02-07T13:43:10.207Z,17.70
2019-02-07T13:45:45.335Z,16.37
2019-02-07T13:48:24.469Z,16.93
2019-02-07T13:50:53.599Z,19.77
2019-02-07T13:53:25.627Z,16.02
2019-02-07T13:55:54.661Z,14.90
2019-02-07T13:58:39.836Z,20.50
2019-02-07T14:01:11.574Z,17.55
2019-02-07T14:03:46.456Z,17.17
2019-02-07T14:06:30.468Z,17.17
2019-02-07T14:09:02.064Z,17.15
2019-02-07T14:11:40.076Z,16.25
2019-02-07T14:14:11.832Z,19.00
2019-02-07T14:16:57.384Z,15.90
2019-02-07T14:19:42.675Z,15.13
2019-02-07T14:22:17.543Z,17.98
2019-02-07T14:24:52.642Z,14.80
2019-02-07T14:27:39.907Z,18.25
2019-02-07T14:30:13.307Z,16.20
2019-02-07T14:32:57.456Z,14.23
2019-02-07T14:35:29.274Z,16.57
2019-02-07T14:38:04.304Z,14.28
2019-02-07T14:40:33.367Z,17.85
2019-02-07T14:43:02.413Z,15.55
2019-02-07T14:45:37.181Z,15.63
2019-02-07T14:48:04.621Z,16.95
2019-02-07T14:50:32.047Z,20.32
2019-02-07T14:53:01.993Z,15.68
2019-02-07T14:55:28.570Z,21.82
2019-02-07T14:57:56.070Z,16.02
2019-02-07T15:00:24.518Z,16.45
2019-02-07T15:02:52.007Z,16.10
2019-02-07T15:05:19.468Z,15.08
2019-02-07T15:07:46.903Z,18.82
2019-02-07T15:10:16.083Z,17.73
2019-02-07T15:12:43.493Z,17.25
2019-02-07T15:15:12.565Z,17.55
2019-02-07T15:17:39.996Z,20.10
2019-02-07T15:20:08.361Z,17.98
2019-02-07T15:22:35.766Z,18.07
2019-02-07T15:25:03.347Z,15.72
2019-02-07T15:27:31.293Z,19.45
2019-02-07T15:29:58.792Z,21.20
2019-02-07T15:32:36.839Z,17.37
2019-02-07T15:35:11.306Z,22.15
2019-02-07T15:37:41.273Z,19.20
2019-02-07T15:40:16.873Z,19.20
2019-02-07T15:42:44.880Z,20.20
2019-02-07T15:45:13.896Z,16.30
2019-02-07T15:47:41.342Z,18.37
2019-02-07T15:50:13.436Z,20.75
2019-02-07T15:52:41.908Z,18.23
2019-02-07T15:55:14.963Z,17.32
2019-02-07T15:57:42.651Z,18.62
2019-02-07T16:00:17.373Z,17.92
2019-02-07T16:02:44.902Z,19.82
2019-02-07T16:05:13.116Z,18.62
2019-02-07T16:07:40.498Z,21.40
2019-02-07T16:10:12.248Z,20.40
2019-02-07T16:12:40.736Z,18.35
2019-02-07T16:15:09.492Z,19.95
2019-02-07T16:17:36.892Z,18.37
2019-02-07T16:20:05.871Z,23.47
2019-02-07T16:22:33.316Z,17.12
2019-02-07T16:25:01.023Z,19.48
2019-02-07T16:27:28.481Z,23.77
2019-02-07T16:29:55.941Z,21.60
2019-02-07T16:32:23.427Z,18.62
2019-02-07T16:34:55.364Z,23.15
2019-02-07T16:37:23.398Z,23.65
2019-02-07T16:39:51.250Z,19.40
2019-02-07T16:42:19.390Z,20.27
2019-02-07T16:44:47.620Z,21.80
2019-02-07T16:47:15.469Z,22.98
2019-02-07T16:49:44.953Z,21.30
2019-02-07T16:52:13.374Z,22.10
2019-02-07T16:54:42.806Z,23.45
2019-02-07T16:57:13.677Z,23.62
2019-02-07T16:59:44.096Z,19.80
2019-02-07T17:02:12.259Z,22.52
2019-02-07T17:04:42.096Z,21.35
2019-02-07T17:07:10.568Z,24.63
2019-02-07T17:09:40.176Z,24.45
2019-02-07T17:12:08.630Z,22.60
2019-02-07T17:14:36.166Z,24.92
2019-02-07T17:17:05.447Z,23.35
2019-02-07T17:19:34.227Z,24.27
2019-02-07T17:22:01.685Z,20.50
2019-02-07T17:24:30.680Z,23.57
2019-02-07T17:27:00.004Z,22.80
2019-02-07T17:29:28.752Z,19.70
2019-02-07T17:31:57.017Z,21.85
2019-02-07T17:34:25.666Z,23.02
2019-02-07T17:36:53.139Z,23.75
2019-02-07T17:39:20.580Z,23.60
2019-02-07T17:41:47.973Z,23.60
2019-02-07T17:44:15.468Z,20.05
2019-02-07T17:46:42.913Z,23.10
2019-02-07T17:49:10.366Z,22.62
2019-02-07T17:51:37.780Z,21.17
2019-02-07T17:54:05.382Z,22.48
2019-02-07T17:56:32.844Z,20.27
2019-02-07T17:59:00.254Z,20.30
2019-02-07T18:01:27.683Z,21.00
2019-02-07T18:03:55.260Z,24.72
2019-02-07T18:06:22.656Z,25.08
2019-02-07T18:08:50.105Z,20.05
2019-02-07T18:11:17.506Z,24.12
2019-02-07T18:13:44.919Z,19.92
2019-02-07T18:16:12.413Z,24.32
2019-02-07T18:18:39.817Z,22.48
2019-02-07T18:21:07.622Z,22.25
2019-02-07T18:23:36.934Z,24.80
2019-02-07T18:26:04.622Z,21.25
2019-02-07T18:28:32.016Z,21.07
2019-02-07T18:30:59.432Z,15.83
2019-02-07T18:33:26.840Z,20.70
2019-02-07T18:35:54.265Z,15.90
2019-02-07T18:38:21.661Z,19.45
2019-02-07T18:40:49.112Z,19.25
2019-02-07T18:43:19.235Z,17.50
2019-02-07T18:45:46.647Z,20.30
2019-02-07T18:48:14.106Z,19.57
2019-02-07T18:50:41.623Z,21.52
2019-02-07T18:53:09.052Z,23.32
2019-02-07T18:55:36.827Z,19.67
2019-02-07T18:58:04.727Z,23.20
2019-02-07T19:00:33.288Z,20.88
2019-02-07T19:03:01.687Z,23.38
2019-02-07T19:05:29.261Z,18.12
2019-02-07T19:07:56.645Z,18.37
2019-02-07T19:10:25.614Z,16.45
2019-02-07T19:12:53.055Z,18.98
2019-02-07T19:15:24.728Z,18.65
2019-02-07T19:17:52.354Z,17.85
2019-02-07T19:20:19.741Z,17.30
2019-02-07T19:22:47.200Z,18.30
2019-02-07T19:25:16.340Z,22.07
2019-02-07T19:27:43.911Z,19.50
2019-02-07T19:30:15.829Z,18.15
2019-02-07T19:32:43.280Z,18.62
2019-02-07T19:35:10.757Z,17.02
2019-02-07T19:37:38.183Z,17.80
2019-02-07T19:40:12.967Z,22.37
2019-02-07T19:42:40.428Z,17.67
2019-02-07T19:45:09.380Z,17.37
2019-02-07T19:47:36.797Z,13.03
2019-02-07T19:50:05.754Z,22.17
2019-02-07T19:52:33.199Z,15.28
2019-02-07T19:55:00.725Z,15.83
2019-02-07T19:57:28.130Z,14.58
2019-02-07T20:03:04.917Z,12.30
2019-02-07T20:05:32.327Z,14.10
2019-02-07T20:07:59.764Z,16.48
2019-02-07T20:10:27.965Z,12.20
2019-02-07T20:12:55.684Z,21.40
2019-02-07T20:15:27.363Z,14.60
2019-02-07T20:17:54.723Z,18.25
2019-02-07T20:20:22.174Z,15.72
2019-02-07T20:22:49.642Z,22.35
2019-02-07T20:25:18.025Z,15.38
2019-02-07T20:27:47.252Z,18.42
2019-02-07T20:30:42.394Z,17.95
2019-02-07T20:33:10.005Z,16.05
2019-02-07T20:35:54.859Z,22.37
2019-02-07T20:38:18.006Z,18.77
2019-02-07T20:40:45.524Z,20.35
2019-02-07T20:43:13.102Z,15.50
2019-02-07T20:45:40.595Z,22.20
2019-02-07T20:48:08.181Z,16.30
2019-02-07T20:50:35.667Z,22.48
2019-02-07T20:53:03.154Z,19.32
2019-02-07T20:55:30.937Z,20.55
2019-02-07T20:57:58.450Z,17.95
2019-02-07T21:00:27.317Z,18.90
2019-02-07T21:02:56.124Z,20.30
2019-02-07T21:05:23.823Z,21.05
2019-02-07T21:07:51.269Z,17.67
2019-02-07T21:10:23.142Z,15.78
2019-02-07T21:12:50.740Z,16.02
2019-02-07T21:15:18.975Z,15.05
2019-02-07T21:17:48.044Z,15.70
2019-02-07T21:20:16.794Z,14.73
2019-02-07T21:22:44.381Z,14.03
2019-02-07T21:25:16.256Z,11.45
2019-02-07T21:27:43.873Z,18.65
2019-02-07T21:30:12.866Z,17.57
2019-02-07T21:32:40.272Z,15.08
2019-02-07T21:35:09.446Z,16.95
2019-02-07T21:37:37.128Z,20.35
2019-02-07T21:40:06.106Z,13.75
2019-02-07T21:42:33.537Z,15.03
2019-02-07T21:45:01.040Z,10.50
2019-02-07T21:47:28.598Z,8.90
2019-02-07T21:49:56.008Z,8.60
2019-02-07T21:52:23.408Z,9.73
2019-02-07T21:54:50.837Z,11.65
2019-02-07T21:57:18.280Z,12.35
2019-02-07T21:59:45.721Z,8.05
2019-02-07T22:02:13.761Z,10.55
2019-02-07T22:04:41.195Z,16.07
2019-02-07T22:07:08.613Z,9.40
2019-02-07T22:09:36.261Z,9.18
2019-02-07T22:12:03.994Z,8.88
2019-02-07T22:14:31.903Z,4.67
2019-02-07T22:16:59.626Z,10.18
2019-02-07T22:19:27.149Z,7.85
2019-02-07T22:21:54.573Z,14.47
2019-02-07T22:24:22.028Z,11.48
2019-02-07T22:26:49.404Z,6.78
2019-02-07T22:29:17.114Z,8.23
2019-02-07T22:31:44.550Z,8.68
2019-02-07T22:34:11.962Z,7.62
2019-02-07T22:36:39.401Z,14.93
2019-02-07T22:39:07.115Z,14.83
2019-02-07T22:41:34.615Z,7.28
2019-02-07T22:44:02.007Z,6.42
2019-02-07T22:46:29.421Z,10.63
2019-02-07T22:48:56.850Z,7.75
2019-02-07T22:51:24.282Z,6.30
2019-02-07T22:53:51.684Z,11.22
2019-02-07T22:56:19.108Z,10.53
2019-02-07T22:58:46.515Z,11.93
2019-02-07T23:01:15.582Z,9.55
2019-02-07T23:03:43.049Z,7.05
2019-02-07T23:06:10.823Z,7.40
2019-02-07T23:08:38.240Z,12.80
2019-02-07T23:11:06.330Z,22.82
2019-02-07T23:13:33.775Z,15.00
2019-02-07T23:16:01.212Z,13.78
2019-02-07T23:18:28.719Z,6.90
2019-02-07T23:20:56.186Z,7.03
2019-02-07T23:23:23.784Z,7.50
2019-02-07T23:25:51.244Z,7.40
2019-02-07T23:28:18.722Z,12.58
2019-02-07T23:30:46.287Z,7.67
2019-02-07T23:33:13.754Z,6.92
2019-02-07T23:35:41.182Z,10.93
2019-02-07T23:38:08.659Z,10.13
2019-02-07T23:40:36.465Z,9.13
2019-02-07T23:43:05.174Z,10.82
2019-02-07T23:45:32.603Z,10.45
2019-02-07T23:48:00.022Z,11.28
2019-02-07T23:50:27.500Z,9.28
2019-02-07T23:52:54.899Z,8.65
2019-02-07T23:55:22.334Z,11.68
2019-02-07T23:57:49.728Z,8.43
